createdAt,value
2023-04-25T00:00:08.327Z,5.28
2023-04-25T00:02:43.728Z,5.05
2023-04-25T00:05:13.308Z,5.05
2023-04-25T00:07:43.130Z,6.15
2023-04-25T00:10:13.082Z,5.70
2023-04-25T00:12:42.514Z,5.75
2023-04-25T00:15:11.877Z,5.57
2023-04-25T00:17:40.676Z,6.70
2023-04-25T00:20:12.452Z,5.80
2023-04-25T00:22:41.049Z,6.38
2023-04-25T00:25:10.069Z,6.85
2023-04-25T00:27:40.139Z,6.70
2023-04-25T00:30:10.026Z,5.18
2023-04-25T00:32:39.352Z,5.18
2023-04-25T00:35:08.081Z,4.93
2023-04-25T00:37:38.701Z,5.80
2023-04-25T00:40:09.306Z,4.80
2023-04-25T00:42:39.211Z,4.72
2023-04-25T00:45:09.483Z,5.13
2023-04-25T00:47:38.553Z,4.60
2023-04-25T00:50:08.339Z,4.38
2023-04-25T00:52:38.760Z,4.70
2023-04-25T00:55:07.940Z,4.30
2023-04-25T00:57:36.914Z,4.68
2023-04-25T01:00:07.597Z,4.55
2023-04-25T01:02:37.334Z,3.85
2023-04-25T01:05:06.342Z,4.60
2023-04-25T01:07:36.167Z,5.63
2023-04-25T01:10:07.272Z,4.85
2023-04-25T01:12:36.220Z,4.65
2023-04-25T01:15:04.872Z,4.47
2023-04-25T01:17:34.554Z,4.60
2023-04-25T01:20:05.770Z,4.53
2023-04-25T01:22:36.801Z,4.50
2023-04-25T01:25:09.785Z,4.97
2023-04-25T01:27:39.485Z,4.45
2023-04-25T01:30:09.291Z,4.47
2023-04-25T01:32:40.312Z,4.78
2023-04-25T01:35:11.249Z,4.20
2023-04-25T01:37:41.590Z,5.03
2023-04-25T01:40:11.808Z,5.30
2023-04-25T01:42:42.980Z,4.63
2023-04-25T01:45:13.156Z,4.70
2023-04-25T01:47:44.059Z,4.53
2023-04-25T01:50:13.369Z,5.00
2023-04-25T01:52:44.106Z,4.00
2023-04-25T01:55:13.915Z,4.97
2023-04-25T01:57:51.717Z,4.95
2023-04-25T02:00:24.126Z,4.50
2023-04-25T02:02:54.649Z,4.88
2023-04-25T02:05:30.090Z,4.57
2023-04-25T02:08:00.214Z,4.68
2023-04-25T02:10:31.092Z,4.32
2023-04-25T02:13:20.512Z,4.72
2023-04-25T02:16:08.527Z,5.00
2023-04-25T02:18:43.100Z,5.03
2023-04-25T02:21:12.604Z,4.80
2023-04-25T02:23:43.096Z,5.35
2023-04-25T02:26:12.362Z,4.40
2023-04-25T02:28:41.580Z,4.82
2023-04-25T02:31:10.038Z,4.38
2023-04-25T02:33:38.490Z,4.93
2023-04-25T02:36:09.353Z,4.78
2023-04-25T02:38:37.824Z,4.88
2023-04-25T02:41:08.358Z,5.15
2023-04-25T02:43:36.966Z,5.55
2023-04-25T02:46:05.931Z,5.32
2023-04-25T02:48:34.817Z,5.13
2023-04-25T02:51:03.299Z,4.75
2023-04-25T02:53:32.188Z,5.75
2023-04-25T02:56:00.561Z,4.90
2023-04-25T02:58:30.749Z,4.90
2023-04-25T03:00:59.505Z,4.47
2023-04-25T03:03:28.120Z,5.90
2023-04-25T03:05:56.678Z,4.75
2023-04-25T03:08:33.554Z,4.40
2023-04-25T03:11:03.573Z,5.22
2023-04-25T03:13:33.333Z,4.60
2023-04-25T03:16:02.635Z,5.43
2023-04-25T03:18:31.979Z,4.93
2023-04-25T03:21:00.621Z,4.90
2023-04-25T03:23:29.142Z,4.47
2023-04-25T03:25:57.628Z,4.68
2023-04-25T03:28:26.463Z,4.20
2023-04-25T03:30:56.679Z,5.10
2023-04-25T03:33:26.416Z,4.63
2023-04-25T03:35:55.409Z,4.70
2023-04-25T03:38:24.184Z,4.72
2023-04-25T03:40:54.499Z,4.88
2023-04-25T03:43:28.129Z,5.25
2023-04-25T03:46:04.862Z,4.70
2023-04-25T03:48:33.342Z,4.30
2023-04-25T03:51:02.094Z,4.47
2023-04-25T03:53:31.835Z,4.88
2023-04-25T03:56:21.889Z,4.35
2023-04-25T03:58:58.661Z,4.22
2023-04-25T04:01:30.322Z,5.00
2023-04-25T04:03:59.881Z,4.43
2023-04-25T04:06:29.752Z,4.50
2023-04-25T04:09:12.386Z,5.45
2023-04-25T04:11:43.554Z,4.75
2023-04-25T04:14:15.492Z,4.43
2023-04-25T04:16:48.611Z,4.15
2023-04-25T04:19:17.472Z,5.75
2023-04-25T04:21:52.577Z,4.97
2023-04-25T04:24:21.655Z,5.40
2023-04-25T04:26:56.140Z,5.35
2023-04-25T04:29:32.638Z,6.00
2023-04-25T04:32:11.778Z,5.65
2023-04-25T04:34:42.443Z,6.07
2023-04-25T04:37:14.270Z,6.80
2023-04-25T04:39:43.531Z,6.70
2023-04-25T04:42:33.724Z,5.70
2023-04-25T04:45:25.418Z,6.65
2023-04-25T04:48:33.744Z,6.63
2023-04-25T04:51:40.500Z,6.70
2023-04-25T04:54:28.096Z,6.45
2023-04-25T04:57:15.190Z,6.68
2023-04-25T04:59:56.942Z,5.97
2023-04-25T05:02:45.853Z,6.60
2023-04-25T05:05:33.580Z,6.50
2023-04-25T05:08:20.816Z,6.47
2023-04-25T05:11:15.920Z,7.35
2023-04-25T05:13:56.393Z,7.78
2023-04-25T05:16:48.097Z,7.35
2023-04-25T05:19:26.828Z,7.18
2023-04-25T05:22:15.389Z,7.43
2023-04-25T05:25:01.582Z,7.40
2023-04-25T05:27:53.547Z,7.90
2023-04-25T05:30:32.041Z,8.10
2023-04-25T05:33:08.912Z,8.60
2023-04-25T05:35:38.213Z,8.35
2023-04-25T05:38:08.041Z,8.65
2023-04-25T05:40:55.885Z,8.55
2023-04-25T05:44:00.411Z,8.90
2023-04-25T05:46:46.401Z,7.13
2023-04-25T05:49:32.837Z,7.47
2023-04-25T05:52:21.795Z,6.97
2023-04-25T05:54:59.910Z,6.40
2023-04-25T05:57:29.504Z,7.20
2023-04-25T05:59:58.740Z,6.82
2023-04-25T06:02:42.409Z,6.75
2023-04-25T06:05:13.621Z,6.90
2023-04-25T06:07:43.663Z,6.38
2023-04-25T06:10:13.500Z,7.10
2023-04-25T06:12:42.128Z,7.25
2023-04-25T06:15:24.207Z,7.75
2023-04-25T06:17:57.047Z,6.18
2023-04-25T06:20:25.877Z,6.65
2023-04-25T06:22:57.112Z,6.18
2023-04-25T06:25:36.210Z,5.90
2023-04-25T06:28:05.356Z,6.22
2023-04-25T06:30:33.910Z,5.38
2023-04-25T06:33:09.719Z,6.13
2023-04-25T06:35:39.087Z,5.72
2023-04-25T06:38:10.076Z,6.40
2023-04-25T06:40:42.040Z,6.00
2023-04-25T06:43:11.855Z,5.53
2023-04-25T06:46:05.317Z,5.85
2023-04-25T06:48:37.882Z,6.60
2023-04-25T06:51:07.230Z,6.40
2023-04-25T06:53:37.020Z,6.32
2023-04-25T06:56:10.083Z,7.88
2023-04-25T06:58:54.725Z,6.53
2023-04-25T07:01:46.602Z,5.80
2023-04-25T07:04:27.939Z,4.88
2023-04-25T07:07:02.114Z,4.45
2023-04-25T07:09:44.726Z,4.20
2023-04-25T07:12:14.695Z,4.50
2023-04-25T07:14:43.131Z,4.85
2023-04-25T07:17:12.387Z,4.25
2023-04-25T07:19:41.429Z,5.10
2023-04-25T07:22:11.145Z,4.35
2023-04-25T07:24:42.584Z,4.10
2023-04-25T07:27:18.728Z,4.20
2023-04-25T07:29:54.120Z,4.20
2023-04-25T07:32:25.106Z,5.00
2023-04-25T07:34:53.798Z,4.63
2023-04-25T07:37:22.320Z,5.03
2023-04-25T07:40:02.538Z,5.40
2023-04-25T07:42:34.839Z,5.47
2023-04-25T07:45:04.661Z,3.50
2023-04-25T07:47:33.271Z,3.53
2023-04-25T07:50:03.034Z,3.78
2023-04-25T07:52:33.421Z,3.60
2023-04-25T07:55:10.675Z,5.05
2023-04-25T07:58:06.927Z,4.82
2023-04-25T08:00:36.033Z,4.60
2023-04-25T08:03:24.807Z,4.63
2023-04-25T08:05:54.144Z,4.88
2023-04-25T08:08:23.095Z,5.63
2023-04-25T08:10:51.606Z,4.72
2023-04-25T08:13:21.923Z,3.72
2023-04-25T08:15:50.983Z,3.95
2023-04-25T08:18:19.868Z,4.20
2023-04-25T08:20:50.337Z,4.18
2023-04-25T08:23:21.504Z,4.60
2023-04-25T08:25:55.282Z,3.63
2023-04-25T08:28:29.604Z,4.15
2023-04-25T08:31:00.910Z,4.43
2023-04-25T08:33:36.319Z,3.55
2023-04-25T08:36:39.679Z,4.82
2023-04-25T08:39:27.580Z,4.60
2023-04-25T08:42:15.303Z,4.25
2023-04-25T08:44:45.996Z,4.72
2023-04-25T08:47:15.215Z,4.68
2023-04-25T08:49:51.320Z,4.07
2023-04-25T08:52:24.296Z,4.50
2023-04-25T08:55:00.357Z,4.00
2023-04-25T08:57:34.024Z,3.28
2023-04-25T09:00:06.807Z,3.63
2023-04-25T09:02:38.589Z,4.20
2023-04-25T09:05:12.113Z,5.47
2023-04-25T09:07:43.666Z,4.85
2023-04-25T09:10:15.524Z,4.40
2023-04-25T09:12:44.259Z,4.00
2023-04-25T09:23:28.686Z,3.63
2023-04-25T09:25:57.571Z,3.28
2023-04-25T09:28:28.523Z,2.97
2023-04-25T09:33:42.311Z,3.35
2023-04-25T09:36:14.996Z,3.87
2023-04-25T09:39:04.704Z,3.67
2023-04-25T09:41:40.128Z,3.80
2023-04-25T09:44:08.984Z,3.30
2023-04-25T09:46:41.036Z,3.00
2023-04-25T09:49:17.266Z,3.10
2023-04-25T09:52:19.282Z,2.75
2023-04-25T09:55:17.013Z,2.55
2023-04-25T09:57:49.550Z,2.90
2023-04-25T10:00:22.402Z,2.90
2023-04-25T10:02:53.680Z,3.45
2023-04-25T10:05:41.651Z,3.60
2023-04-25T10:08:10.414Z,3.60
2023-04-25T10:10:39.636Z,4.13
2023-04-25T10:13:09.285Z,3.55
2023-04-25T10:15:40.221Z,3.40
2023-04-25T10:18:11.312Z,3.47
2023-04-25T10:20:40.453Z,3.90
2023-04-25T10:23:14.191Z,4.00
2023-04-25T10:25:42.900Z,3.90
2023-04-25T10:28:11.592Z,4.20
2023-04-25T10:30:40.262Z,4.30
2023-04-25T10:33:19.048Z,4.20
2023-04-25T10:35:47.815Z,3.83
2023-04-25T10:38:17.131Z,3.22
2023-04-25T10:41:05.628Z,3.47
2023-04-25T10:43:39.392Z,3.92
2023-04-25T10:46:21.958Z,3.95
2023-04-25T10:48:52.754Z,4.10
2023-04-25T10:51:24.231Z,3.95
2023-04-25T10:54:10.337Z,3.55
2023-04-25T10:56:43.096Z,3.08
2023-04-25T10:59:13.458Z,3.10
2023-04-25T11:01:45.424Z,3.97
2023-04-25T11:04:26.045Z,2.95
2023-04-25T11:07:06.813Z,2.83
2023-04-25T11:09:37.107Z,3.08
2023-04-25T11:12:07.231Z,2.72
2023-04-25T11:14:35.820Z,2.70
2023-04-25T11:17:04.392Z,2.05
2023-04-25T11:19:34.944Z,2.47
2023-04-25T11:22:04.612Z,2.13
2023-04-25T11:24:35.387Z,2.50
2023-04-25T11:27:04.914Z,2.75
2023-04-25T11:29:34.814Z,2.55
2023-04-25T11:32:04.044Z,2.60
2023-04-25T11:34:34.498Z,2.40
2023-04-25T11:37:04.433Z,2.95
2023-04-25T11:39:33.134Z,2.53
2023-04-25T11:42:02.912Z,2.53
2023-04-25T11:44:33.937Z,2.80
2023-04-25T11:47:02.466Z,2.25
2023-04-25T11:49:34.592Z,2.17
2023-04-25T11:52:03.078Z,2.50
2023-04-25T11:54:31.507Z,3.50
2023-04-25T11:57:02.927Z,2.13
2023-04-25T11:59:31.556Z,2.38
2023-04-25T12:02:02.718Z,2.70
2023-04-25T12:04:34.748Z,2.85
2023-04-25T12:07:03.580Z,2.53
2023-04-25T12:09:33.341Z,3.05
2023-04-25T12:12:05.942Z,2.70
2023-04-25T12:14:36.164Z,2.28
2023-04-25T12:17:08.995Z,2.85
2023-04-25T12:19:41.826Z,2.72
2023-04-25T12:22:22.392Z,2.55
2023-04-25T12:24:50.943Z,2.30
2023-04-25T12:27:20.420Z,2.20
2023-04-25T12:29:56.289Z,2.60
2023-04-25T12:32:24.965Z,2.40
2023-04-25T12:34:54.839Z,2.80
2023-04-25T12:37:23.583Z,2.70
2023-04-25T12:39:52.703Z,2.65
2023-04-25T12:42:21.383Z,2.40
2023-04-25T12:44:49.939Z,2.60
2023-04-25T12:47:18.416Z,2.58
2023-04-25T12:49:46.744Z,2.65
2023-04-25T12:52:16.740Z,2.60
2023-04-25T12:54:45.192Z,2.53
2023-04-25T12:57:13.988Z,2.47
2023-04-25T12:59:42.463Z,2.63
2023-04-25T13:02:13.700Z,2.42
2023-04-25T13:04:45.270Z,2.42
2023-04-25T13:07:27.088Z,2.60
2023-04-25T13:09:56.211Z,2.20
2023-04-25T13:12:24.923Z,2.58
2023-04-25T13:14:53.638Z,2.20
2023-04-25T13:17:23.427Z,2.33
2023-04-25T13:19:51.983Z,3.08
2023-04-25T13:22:21.726Z,3.08
2023-04-25T13:24:50.193Z,2.33
2023-04-25T13:27:18.822Z,2.85
2023-04-25T13:29:47.346Z,2.63
2023-04-25T13:32:19.191Z,2.53
2023-04-25T13:34:47.790Z,2.45
2023-04-25T13:37:16.727Z,2.40
2023-04-25T13:39:47.018Z,2.35
2023-04-25T13:42:15.893Z,2.63
2023-04-25T13:44:44.261Z,3.60
2023-04-25T13:47:14.388Z,2.90
2023-04-25T13:49:42.884Z,3.50
2023-04-25T13:52:11.511Z,2.40
2023-04-25T13:54:40.101Z,2.50
2023-04-25T13:57:09.965Z,2.42
2023-04-25T13:59:38.409Z,2.70
2023-04-25T14:02:08.841Z,2.80
2023-04-25T14:04:37.752Z,2.88
2023-04-25T14:07:06.770Z,3.20
2023-04-25T14:09:35.413Z,2.80
2023-04-25T14:12:04.278Z,2.42
2023-04-25T14:14:34.133Z,2.60
2023-04-25T14:17:05.167Z,2.33
2023-04-25T14:19:36.288Z,2.90
2023-04-25T14:22:04.819Z,2.88
2023-04-25T14:24:33.292Z,2.83
2023-04-25T14:27:01.990Z,3.33
2023-04-25T14:29:30.548Z,2.72
2023-04-25T14:32:00.611Z,2.28
2023-04-25T14:34:29.255Z,2.72
2023-04-25T14:36:57.793Z,2.85
2023-04-25T14:39:26.291Z,2.42
2023-04-25T14:41:54.970Z,2.15
2023-04-25T14:44:23.485Z,2.88
2023-04-25T14:46:52.924Z,2.38
2023-04-25T14:49:27.514Z,1.90
2023-04-25T14:51:56.218Z,2.38
2023-04-25T14:54:25.782Z,2.40
2023-04-25T14:56:54.582Z,2.70
2023-04-25T14:59:23.197Z,2.30
2023-04-25T15:01:53.006Z,2.75
2023-04-25T15:04:21.805Z,2.50
2023-04-25T15:06:52.260Z,2.53
2023-04-25T15:09:20.865Z,2.55
2023-04-25T15:11:49.395Z,2.97
2023-04-25T15:14:18.461Z,2.70
2023-04-25T15:16:47.181Z,2.70
2023-04-25T15:19:15.791Z,2.75
2023-04-25T15:21:44.498Z,2.60
2023-04-25T15:24:16.161Z,3.10
2023-04-25T15:26:44.687Z,3.10
2023-04-25T15:29:13.294Z,3.03
2023-04-25T15:31:44.146Z,3.05
2023-04-25T15:34:12.681Z,2.72
2023-04-25T15:39:09.728Z,3.10
2023-04-25T15:41:42.377Z,3.10
2023-04-25T15:44:11.286Z,3.25
2023-04-25T15:46:40.381Z,3.25
2023-04-25T15:49:08.951Z,3.22
2023-04-25T15:51:37.359Z,3.42
2023-04-25T15:54:06.097Z,3.28
2023-04-25T15:56:34.695Z,3.38
2023-04-25T15:59:04.728Z,3.00
2023-04-25T16:01:35.396Z,3.00
2023-04-25T16:04:04.239Z,3.08
2023-04-25T16:06:33.212Z,2.90
2023-04-25T16:09:02.459Z,3.03
2023-04-25T16:11:31.121Z,2.83
2023-04-25T16:13:59.556Z,3.08
2023-04-25T16:16:29.963Z,2.65
2023-04-25T16:18:58.883Z,2.58
2023-04-25T16:21:27.476Z,2.80
2023-04-25T16:23:56.484Z,2.63
2023-04-25T16:26:25.035Z,2.80
2023-04-25T16:28:56.259Z,2.83
2023-04-25T16:31:26.633Z,3.13
2023-04-25T16:33:56.945Z,2.80
2023-04-25T16:36:28.266Z,2.17
2023-04-25T16:38:56.915Z,2.72
2023-04-25T16:41:27.732Z,2.75
2023-04-25T16:43:56.246Z,2.60
2023-04-25T16:46:24.956Z,3.05
2023-04-25T16:48:53.515Z,3.10
2023-04-25T16:51:23.521Z,2.97
2023-04-25T16:53:52.097Z,3.10
2023-04-25T16:56:20.496Z,2.92
2023-04-25T16:58:49.673Z,3.28
2023-04-25T17:01:20.207Z,3.00
2023-04-25T17:03:49.197Z,2.75
2023-04-25T17:06:18.322Z,2.83
2023-04-25T17:08:48.316Z,3.00
2023-04-25T17:11:17.169Z,3.17
2023-04-25T17:13:46.289Z,2.83
2023-04-25T17:16:16.801Z,2.83
2023-04-25T17:18:46.233Z,3.35
2023-04-25T17:21:14.764Z,2.90
2023-04-25T17:23:45.746Z,3.03
2023-04-25T17:26:16.571Z,3.35
2023-04-25T17:28:49.577Z,2.78
2023-04-25T17:31:18.785Z,2.95
2023-04-25T17:33:47.666Z,3.17
2023-04-25T17:36:16.236Z,3.28
2023-04-25T17:38:44.657Z,3.58
2023-04-25T17:41:14.389Z,3.88
2023-04-25T17:43:44.334Z,3.65
2023-04-25T17:46:13.333Z,3.00
2023-04-25T17:48:41.865Z,3.22
2023-04-25T17:51:10.656Z,2.67
2023-04-25T17:53:39.155Z,3.00
2023-04-25T17:56:23.352Z,2.75
2023-04-25T17:58:56.409Z,2.42
2023-04-25T18:01:24.932Z,3.00
2023-04-25T18:03:53.752Z,2.72
2023-04-25T18:06:22.563Z,2.38
2023-04-25T18:08:51.453Z,3.20
2023-04-25T18:11:20.333Z,3.50
2023-04-25T18:13:49.260Z,3.22
2023-04-25T18:16:19.123Z,2.92
2023-04-25T18:18:53.638Z,3.13
2023-04-25T18:21:22.851Z,3.08
2023-04-25T18:23:51.406Z,2.90
2023-04-25T18:26:20.392Z,2.67
2023-04-25T18:28:49.132Z,3.05
2023-04-25T18:31:24.185Z,3.00
2023-04-25T18:33:53.161Z,3.17
2023-04-25T18:36:21.670Z,2.92
2023-04-25T18:38:56.471Z,2.65
2023-04-25T18:41:50.970Z,3.03
2023-04-25T18:44:15.821Z,2.90
2023-04-25T18:46:47.248Z,2.85
2023-04-25T18:49:16.057Z,3.35
2023-04-25T18:51:44.960Z,3.53
2023-04-25T18:54:13.933Z,3.65
2023-04-25T18:56:42.603Z,3.85
2023-04-25T18:59:11.367Z,3.38
2023-04-25T19:01:39.964Z,3.47
2023-04-25T19:04:10.087Z,3.50
2023-04-25T19:06:39.732Z,3.30
2023-04-25T19:09:10.214Z,2.80
2023-04-25T19:11:38.973Z,3.25
2023-04-25T19:14:08.499Z,3.45
2023-04-25T19:16:39.153Z,3.97
2023-04-25T19:19:13.391Z,3.85
2023-04-25T19:21:42.568Z,4.50
2023-04-25T19:24:11.575Z,3.88
2023-04-25T19:26:40.861Z,3.83
2023-04-25T19:29:12.290Z,4.00
2023-04-25T19:31:41.304Z,3.95
2023-04-25T19:34:11.453Z,3.80
2023-04-25T19:36:44.176Z,4.32
2023-04-25T19:39:13.162Z,3.65
2023-04-25T19:41:41.686Z,4.57
2023-04-25T19:44:10.955Z,4.57
2023-04-25T19:46:39.705Z,4.30
2023-04-25T19:49:08.413Z,3.60
2023-04-25T19:51:38.335Z,3.78
2023-04-25T19:54:07.152Z,3.55
2023-04-25T19:56:35.606Z,3.72
2023-04-25T19:59:04.365Z,3.65
2023-04-25T20:01:33.517Z,4.00
2023-04-25T20:04:02.089Z,4.20
2023-04-25T20:06:30.645Z,3.97
2023-04-25T20:09:00.591Z,3.65
2023-04-25T20:11:29.304Z,4.57
2023-04-25T20:14:00.593Z,4.25
2023-04-25T20:16:29.156Z,4.10
2023-04-25T20:18:57.723Z,4.13
2023-04-25T20:21:27.972Z,3.97
2023-04-25T20:23:56.573Z,3.83
2023-04-25T20:26:27.930Z,3.72
2023-04-25T20:28:57.283Z,4.10
2023-04-25T20:31:25.942Z,4.25
2023-04-25T20:33:54.467Z,3.70
2023-04-25T20:36:22.951Z,3.47
2023-04-25T20:38:51.700Z,2.88
2023-04-25T20:41:20.258Z,3.00
2023-04-25T20:43:53.372Z,3.47
2023-04-25T20:46:22.427Z,2.67
2023-04-25T20:48:52.895Z,2.50
2023-04-25T20:51:21.923Z,2.70
2023-04-25T20:53:52.356Z,2.17
2023-04-25T20:56:20.916Z,2.25
2023-04-25T20:58:51.013Z,2.50
2023-04-25T21:01:22.436Z,1.85
2023-04-25T21:03:51.905Z,2.45
2023-04-25T21:06:20.676Z,1.98
2023-04-25T21:08:49.437Z,2.30
2023-04-25T21:11:19.699Z,2.30
2023-04-25T21:13:48.144Z,2.20
2023-04-25T21:16:18.043Z,1.90
2023-04-25T21:18:46.606Z,2.33
2023-04-25T21:21:15.079Z,2.40
2023-04-25T21:23:43.788Z,2.83
2023-04-25T21:26:12.468Z,2.80
2023-04-25T21:28:41.289Z,3.20
2023-04-25T21:31:09.763Z,2.80
2023-04-25T21:33:39.976Z,2.90
2023-04-25T21:36:09.074Z,2.80
2023-04-25T21:38:37.675Z,2.78
2023-04-25T21:41:09.582Z,2.15
2023-04-25T21:43:38.129Z,1.90
2023-04-25T21:46:22.335Z,2.25
2023-04-25T21:48:54.434Z,2.00
2023-04-25T21:51:23.286Z,1.73
2023-04-25T21:53:51.750Z,1.60
2023-04-25T21:56:21.154Z,1.63
2023-04-25T21:58:49.962Z,1.40
2023-04-25T22:01:19.375Z,2.13
2023-04-25T22:03:48.087Z,2.13
2023-04-25T22:06:18.117Z,1.73
2023-04-25T22:08:46.693Z,1.60
2023-04-25T22:11:15.299Z,1.60
2023-04-25T22:13:45.175Z,2.30
2023-04-25T22:16:14.356Z,1.88
2023-04-25T22:18:43.441Z,2.00
2023-04-25T22:21:12.147Z,1.60
2023-04-25T22:23:41.934Z,2.22
2023-04-25T22:26:10.978Z,2.40
2023-04-25T22:28:40.637Z,2.47
2023-04-25T22:31:09.432Z,2.63
2023-04-25T22:33:38.044Z,2.97
2023-04-25T22:36:06.951Z,2.83
2023-04-25T22:38:35.287Z,2.67
2023-04-25T22:41:05.479Z,2.70
2023-04-25T22:43:33.800Z,2.55
2023-04-25T22:46:02.501Z,3.03
2023-04-25T22:48:30.939Z,2.72
2023-04-25T22:51:06.302Z,3.00
2023-04-25T22:53:37.471Z,2.85
2023-04-25T22:56:08.163Z,2.60
2023-04-25T22:58:37.289Z,2.97
2023-04-25T23:01:08.636Z,3.60
2023-04-25T23:03:37.637Z,3.50
2023-04-25T23:06:06.273Z,3.40
2023-04-25T23:08:35.472Z,3.58
2023-04-25T23:11:08.335Z,3.75
2023-04-25T23:13:37.681Z,4.05
2023-04-25T23:16:07.484Z,3.70
2023-04-25T23:18:36.808Z,3.60
2023-04-25T23:21:07.814Z,3.33
2023-04-25T23:23:36.690Z,3.40
2023-04-25T23:26:09.892Z,4.18
2023-04-25T23:28:41.463Z,3.55
2023-04-25T23:31:11.909Z,3.88
2023-04-25T23:33:40.714Z,3.78
2023-04-25T23:36:09.459Z,3.72
2023-04-25T23:38:38.425Z,3.35
2023-04-25T23:41:07.054Z,3.17
2023-04-25T23:43:36.997Z,3.60
2023-04-25T23:46:05.606Z,3.22
2023-04-25T23:48:34.145Z,3.70
2023-04-25T23:51:02.535Z,3.75
2023-04-25T23:53:31.228Z,3.97
2023-04-25T23:55:59.583Z,4.32
2023-04-25T23:58:29.588Z,4.28
